Terminal Aerodrome Forecast
Issued by NWS

Home | Current Version | Previous Version | Text Only | Print | Product List | Glossary On
Versions: 1 2 3 4 5 6 7 8 9 10 11 12 13 14 15 16 17 18 19 20 21 22 23 24
000
FTUS42 KGSP 161138
TAFHKY
TAF
KHKY 161138Z 1612/1712 VRB03KT P6SM SCT250
     FM161700 21006KT P6SM SCT100 BKN250
     FM170100 23005KT P6SM SCT050 BKN100 PROB30 1702/1706 4SM -SN
      OVC025
     FM170600 32006KT 5SM -SN OVC026
      TEMPO 1708/1712 2SM -SN OVC015=

USA.gov is the U.S. government's official web portal to all federal, state and local government web resources and services.